| time (UTC) | temp F | wind direction | speed MPH | gust MPH | rain 1hr in | rain 24hr in | rain mn in | humidity % | barometer mb |
| 20260505101739 | 51 | 323 | 0.0 | 0.0 | 0.00 | 0.08 | 0.08 | 98 | 1018.7 |
| 20260505101235 | 51 | 323 | 0.0 | 0.0 | 0.00 | 0.08 | 0.08 | 98 | 1018.7 |
| 20260505100732 | 51 | 324 | 0.0 | 0.0 | 0.00 | 0.08 | 0.08 | 98 | 1018.8 |
| 20260505100229 | 51 | 324 | 0.0 | 0.0 | 0.00 | 0.08 | 0.08 | 98 | 1018.8 |
| 20260505095724 | 51 | 323 | 0.0 | 0.0 | 0.00 | 0.08 | 0.08 | 98 | 1018.8 |
| 20260505095222 | 51 | 323 | 0.0 | 0.0 | 0.00 | 0.08 | 0.08 | 98 | 1018.6 |
| 20260505094718 | 51 | 323 | 0.0 | 0.0 | 0.00 | 0.08 | 0.08 | 98 | 1018.7 |
| 20260505094214 | 51 | 324 | 0.0 | 0.0 | 0.00 | 0.08 | 0.08 | 98 | 1018.8 |
| 20260505093711 | 51 | 324 | 0.0 | 0.0 | 0.00 | 0.08 | 0.08 | 98 | 1018.7 |
| 20260505093208 | 51 | 325 | 0.0 | 0.0 | 0.00 | 0.08 | 0.08 | 98 | 1018.7 |
| 20260505092705 | 51 | 325 | 0.0 | 0.0 | 0.00 | 0.08 | 0.08 | 98 | 1018.8 |
| 20260505092204 | 51 | 323 | 0.0 | 0.0 | 0.00 | 0.08 | 0.08 | 98 | 1018.8 |
| 20260505091700 | 51 | 325 | 0.0 | 0.0 | 0.00 | 0.08 | 0.08 | 98 | 1018.8 |
| 20260505091158 | 52 | 325 | 0.0 | 0.0 | 0.00 | 0.08 | 0.08 | 98 | 1018.9 |
| 20260505090655 | 52 | 324 | 0.0 | 0.0 | 0.07 | 0.08 | 0.08 | 98 | 1019.2 |
| 20260505090154 | 52 | 324 | 0.0 | 0.0 | 0.07 | 0.08 | 0.08 | 98 | 1019.4 |
| 20260505085651 | 52 | 326 | 0.0 | 0.0 | 0.00 | 0.07 | 0.07 | 98 | 1019.2 |
| 20260505085149 | 52 | 323 | 0.0 | 0.0 | 0.05 | 0.07 | 0.07 | 98 | 1019.3 |
| 20260505084646 | 52 | 323 | 0.0 | 0.0 | 0.05 | 0.07 | 0.07 | 98 | 1019.4 |
| 20260505084145 | 52 | 326 | 0.0 | 0.0 | 0.00 | 0.06 | 0.06 | 98 | 1019.2 |
| 20260505083642 | 52 | 325 | 0.0 | 0.0 | 0.00 | 0.06 | 0.06 | 98 | 1019.3 |
| 20260505083138 | 52 | 326 | 0.0 | 0.0 | 0.00 | 0.06 | 0.06 | 98 | 1019.5 |
| 20260505082634 | 52 | 326 | 0.0 | 0.0 | 0.00 | 0.06 | 0.06 | 98 | 1019.4 |
| 20260505082131 | 52 | 324 | 0.0 | 0.0 | 0.00 | 0.06 | 0.06 | 98 | 1019.2 |
| 20260505081627 | 52 | 325 | 0.0 | 0.0 | 0.00 | 0.06 | 0.06 | 98 | 1019.3 |
| 20260505081125 | 52 | 326 | 0.0 | 0.0 | 0.07 | 0.06 | 0.06 | 98 | 1019.3 |
| 20260505080621 | 52 | 325 | 0.0 | 0.0 | 0.00 | 0.05 | 0.05 | 98 | 1019.4 |
| 20260505080118 | 52 | 326 | 0.0 | 0.0 | 0.05 | 0.05 | 0.05 | 98 | 1019.1 |
| 20260505075614 | 52 | 322 | 0.0 | 0.0 | 0.12 | 0.05 | 0.05 | 98 | 1019.1 |
| 20260505075111 | 52 | 326 | 0.0 | 0.0 | 0.07 | 0.04 | 0.04 | 98 | 1019.4 |
| 20260505074607 | 52 | 323 | 0.0 | 0.0 | 0.05 | 0.03 | 0.03 | 98 | 1019.3 |
| 20260505074105 | 52 | 322 | 0.0 | 0.0 | 0.05 | 0.03 | 0.03 | 98 | 1019.3 |
| 20260505073602 | 52 | 326 | 0.0 | 0.0 | 0.07 | 0.02 | 0.02 | 98 | 1019.2 |
| 20260505073101 | 52 | 318 | 0.0 | 0.0 | 0.07 | 0.02 | 0.02 | 98 | 1019.5 |
| 20260505072555 | 52 | 324 | 0.0 | 0.0 | 0.05 | 0.01 | 0.01 | 98 | 1019.8 |
| 20260505072052 | 52 | 325 | 0.0 | 0.0 | 0.05 | 0.01 | 0.01 | 98 | 1019.9 |
| 20260505071548 | 52 | 337 | 0.0 | 0.0 | 0.00 | 0.00 | 0.00 | 98 | 1019.5 |
| 20260505071046 | 52 | 326 | 0.0 | 0.0 | 0.00 | 0.00 | 0.00 | 98 | 1019.7 |
| 20260505070543 | 51 | 328 | 0.0 | 0.0 | 0.00 | 0.00 | 0.00 | 97 | 1019.8 |
| 20260505070039 | 52 | 324 | 0.0 | 0.0 | 0.00 | 0.00 | 0.00 | 97 | 1019.9 |
| 20260505065535 | 51 | 327 | 0.0 | 0.0 | 0.00 | 0.20 | 0.20 | 97 | 1019.7 |
| 20260505065032 | 51 | 325 | 0.0 | 0.0 | 0.00 | 0.20 | 0.20 | 97 | 1019.6 |
| 20260505064529 | 51 | 326 | 0.0 | 0.0 | 0.00 | 0.20 | 0.20 | 97 | 1019.5 |
| 20260505064027 | 51 | 326 | 0.0 | 0.0 | 0.00 | 0.20 | 0.20 | 97 | 1019.4 |
| 20260505063524 | 51 | 325 | 0.0 | 0.0 | 0.00 | 0.20 | 0.20 | 97 | 1019.3 |
| 20260505063020 | 51 | 323 | 0.0 | 0.0 | 0.00 | 0.20 | 0.20 | 97 | 1019.2 |
| 20260505062517 | 51 | 324 | 0.0 | 0.0 | 0.00 | 0.20 | 0.20 | 97 | 1019.5 |
| 20260505062014 | 51 | 326 | 0.0 | 0.0 | 0.00 | 0.20 | 0.20 | 97 | 1019.3 |
| 20260505061512 | 51 | 324 | 0.0 | 0.0 | 0.00 | 0.20 | 0.20 | 97 | 1019.6 |
| 20260505061009 | 51 | 323 | 0.0 | 0.0 | 0.07 | 0.20 | 0.20 | 97 | 1019.5 |
| 20260505060507 | 51 | 311 | 0.0 | 0.0 | 0.00 | 0.19 | 0.19 | 97 | 1019.5 |
| 20260505060003 | 51 | 324 | 0.0 | 0.0 | 0.05 | 0.19 | 0.19 | 97 | 1019.5 |
| 20260505055458 | 51 | 325 | 0.0 | 0.0 | 0.05 | 0.19 | 0.19 | 97 | 1019.3 |
| 20260505054955 | 51 | 326 | 0.0 | 0.0 | 0.00 | 0.18 | 0.18 | 97 | 1019.5 |
| 20260505054453 | 51 | 317 | 0.0 | 0.0 | 0.00 | 0.18 | 0.18 | 96 | 1019.6 |
| 20260505053950 | 51 | 318 | 0.0 | 0.0 | 0.00 | 0.18 | 0.18 | 96 | 1019.5 |
| 20260505053447 | 51 | 324 | 0.0 | 0.0 | 0.07 | 0.18 | 0.18 | 96 | 1019.7 |
| 20260505052944 | 51 | 323 | 0.0 | 0.0 | 0.07 | 0.18 | 0.18 | 96 | 1019.6 |
| 20260505052441 | 51 | 323 | 0.0 | 0.0 | 0.00 | 0.17 | 0.17 | 96 | 1019.7 |
| 20260505051938 | 51 | 325 | 0.0 | 0.0 | 0.05 | 0.17 | 0.17 | 96 | 1019.6 |
| 20260505051435 | 51 | 326 | 0.0 | 0.0 | 0.00 | 0.16 | 0.16 | 96 | 1019.7 |
| 20260505050933 | 51 | 325 | 0.0 | 0.0 | 0.07 | 0.16 | 0.16 | 96 | 1019.5 |
| 20260505050432 | 51 | 323 | 0.0 | 0.0 | 0.07 | 0.16 | 0.16 | 96 | 1019.6 |
| 20260505041359 | 52 | 314 | 0.0 | 0.0 | 0.05 | 0.06 | 0.06 | 95 | 1020.3 |
| 20260505040856 | 52 | 326 | 0.0 | 0.0 | 0.05 | 0.06 | 0.06 | 95 | 1020.2 |
| 20260505040354 | 52 | 323 | 0.0 | 0.0 | 0.07 | 0.05 | 0.05 | 95 | 1020.3 |
| 20260505035850 | 52 | 324 | 0.0 | 0.0 | 0.07 | 0.05 | 0.05 | 95 | 1020.1 |
| 20260505035346 | 52 | 323 | 0.0 | 0.0 | 0.00 | 0.04 | 0.04 | 94 | 1020.0 |
| 20260505034843 | 52 | 324 | 0.0 | 0.0 | 0.00 | 0.04 | 0.04 | 94 | 1019.6 |
| 20260505034340 | 52 | 326 | 0.0 | 0.0 | 0.00 | 0.04 | 0.04 | 94 | 1019.3 |
| 20260505033837 | 52 | 322 | 0.0 | 0.0 | 0.00 | 0.04 | 0.04 | 93 | 1019.0 |
| 20260505033334 | 52 | 326 | 0.0 | 0.0 | 0.05 | 0.04 | 0.04 | 92 | 1018.8 |
| 20260505032832 | 52 | 326 | 0.0 | 0.0 | 0.05 | 0.04 | 0.04 | 91 | 1018.7 |
| 20260505032328 | 52 | 320 | 0.0 | 0.0 | 0.00 | 0.03 | 0.03 | 92 | 1018.7 |
| 20260505031826 | 53 | 326 | 0.0 | 0.0 | 0.07 | 0.03 | 0.03 | 92 | 1018.8 |
| 20260505031322 | 53 | 327 | 0.0 | 0.0 | 0.07 | 0.03 | 0.03 | 92 | 1018.9 |
| 20260505030819 | 53 | 324 | 0.0 | 0.0 | 0.00 | 0.02 | 0.02 | 91 | 1018.7 |
| 20260505030315 | 53 | 325 | 0.0 | 0.0 | 0.00 | 0.02 | 0.02 | 91 | 1018.9 |
| 20260505025811 | 53 | 326 | 0.0 | 0.0 | 0.07 | 0.02 | 0.02 | 90 | 1019.0 |
| 20260505025309 | 53 | 322 | 0.0 | 0.0 | 0.00 | 0.01 | 0.01 | 89 | 1019.2 |
| 20260505024807 | 53 | 239 | 0.0 | 0.0 | 0.00 | 0.01 | 0.01 | 89 | 1019.1 |
| 20260505024304 | 53 | 323 | 0.0 | 0.0 | 0.00 | 0.01 | 0.01 | 89 | 1018.8 |
| 20260505023801 | 53 | 327 | 0.0 | 0.0 | 0.00 | 0.01 | 0.01 | 89 | 1019.0 |
| 20260505023258 | 54 | 309 | 0.0 | 0.0 | 0.00 | 0.01 | 0.01 | 89 | 1019.2 |
| 20260505022755 | 54 | 298 | 0.0 | 0.0 | 0.00 | 0.01 | 0.01 | 90 | 1019.1 |
| 20260505022252 | 54 | 327 | 0.0 | 0.0 | 0.00 | 0.01 | 0.01 | 90 | 1019.1 |
| 20260505021749 | 54 | 327 | 0.0 | 0.0 | 0.00 | 0.01 | 0.01 | 89 | 1018.7 |
| 20260505021246 | 54 | 332 | 0.0 | 0.0 | 0.00 | 0.01 | 0.01 | 90 | 1018.9 |
| 20260505020742 | 54 | 325 | 0.0 | 0.0 | 0.00 | 0.01 | 0.01 | 89 | 1018.9 |
| 20260505020237 | 54 | 321 | 0.0 | 0.0 | 0.00 | 0.01 | 0.01 | 90 | 1018.8 |
| 20260505015735 | 54 | 323 | 0.0 | 0.0 | 0.00 | 0.01 | 0.01 | 90 | 1019.0 |
| 20260505015231 | 54 | 323 | 0.0 | 0.0 | 0.00 | 0.01 | 0.01 | 89 | 1018.8 |
| 20260505014728 | 55 | 322 | 0.0 | 0.0 | 0.00 | 0.01 | 0.01 | 89 | 1019.2 |
| 20260505014226 | 55 | 331 | 0.0 | 0.0 | 0.00 | 0.01 | 0.01 | 89 | 1019.3 |
| 20260505013722 | 55 | 312 | 0.0 | 0.0 | 0.00 | 0.01 | 0.01 | 89 | 1019.3 |
| 20260505013219 | 55 | 324 | 0.0 | 0.0 | 0.00 | 0.01 | 0.01 | 90 | 1019.4 |
| 20260505012718 | 55 | 325 | 0.0 | 0.0 | 0.00 | 0.01 | 0.01 | 89 | 1019.5 |
| 20260505012215 | 55 | 323 | 0.0 | 0.0 | 0.00 | 0.01 | 0.01 | 89 | 1019.5 |
| 20260505011710 | 56 | 327 | 0.0 | 0.0 | 0.00 | 0.01 | 0.01 | 89 | 1019.3 |
| 20260505011208 | 55 | 319 | 0.0 | 0.0 | 0.00 | 0.01 | 0.01 | 89 | 1019.5 |
| 20260505010703 | 55 | 324 | 0.0 | 0.0 | 0.00 | 0.01 | 0.01 | 89 | 1019.3 |
| 20260505010200 | 56 | 324 | 0.0 | 0.0 | 0.00 | 0.01 | 0.01 | 88 | 1019.3 |
| 20260505005656 | 56 | 322 | 0.0 | 0.0 | 0.05 | 0.01 | 0.01 | 87 | 1019.4 |
| 20260505005153 | 56 | 274 | 0.0 | 0.0 | 0.05 | 0.01 | 0.01 | 87 | 1019.4 |
| 20260505004650 | 56 | 325 | 0.0 | 0.0 | 0.00 | 0.00 | 0.00 | 86 | 1019.4 |
| 20260505004147 | 56 | 327 | 0.0 | 0.0 | 0.00 | 0.00 | 0.00 | 86 | 1019.6 |
| 20260505003644 | 57 | 323 | 0.0 | 0.0 | 0.00 | 0.00 | 0.00 | 86 | 1019.6 |
| 20260505003142 | 56 | 318 | 0.0 | 0.0 | 0.00 | 0.00 | 0.00 | 85 | 1019.5 |
| 20260505002638 | 57 | 323 | 0.0 | 0.0 | 0.00 | 0.00 | 0.00 | 86 | 1019.6 |
| 20260505002136 | 57 | 305 | 0.0 | 0.0 | 0.00 | 0.00 | 0.00 | 86 | 1019.6 |
| 20260505001633 | 57 | 328 | 0.0 | 0.0 | 0.00 | 0.00 | 0.00 | 85 | 1019.6 |
| 20260505001130 | 57 | 321 | 0.0 | 0.0 | 0.00 | 0.00 | 0.00 | 85 | 1019.7 |
| 20260505000627 | 57 | 317 | 0.0 | 0.0 | 0.00 | 0.00 | 0.00 | 84 | 1019.2 |
| 20260505000125 | 58 | 324 | 0.0 | 0.0 | 0.00 | 0.00 | 0.00 | 84 | 1019.4 |
| 20260504235621 | 58 | 320 | 0.0 | 0.0 | 0.00 | 0.00 | 0.00 | 83 | 1019.4 |
| 20260504235118 | 59 | 319 | 0.0 | 0.0 | 0.00 | 0.00 | 0.00 | 81 | 1019.3 |
| 20260504234615 | 59 | 322 | 0.0 | 0.0 | 0.00 | 0.00 | 0.00 | 81 | 1019.2 |
| 20260504234112 | 59 | 347 | 0.0 | 0.0 | 0.00 | 0.00 | 0.00 | 80 | 1019.3 |
| 20260504233608 | 59 | 321 | 0.0 | 0.0 | 0.00 | 0.00 | 0.00 | 79 | 1019.3 |
| 20260504233104 | 60 | 318 | 0.0 | 0.0 | 0.00 | 0.00 | 0.00 | 78 | 1019.2 |
| 20260504232602 | 59 | 328 | 0.0 | 0.0 | 0.00 | 0.00 | 0.00 | 79 | 1019.1 |
| 20260504232059 | 60 | 291 | 0.0 | 0.0 | 0.00 | 0.00 | 0.00 | 76 | 1019.1 |
| 20260504231555 | 60 | 319 | 0.0 | 0.0 | 0.00 | 0.00 | 0.00 | 76 | 1019.0 |
| 20260504231051 | 60 | 330 | 0.0 | 0.0 | 0.00 | 0.00 | 0.00 | 75 | 1018.9 |
| 20260504230547 | 60 | 322 | 0.0 | 0.0 | 0.00 | 0.00 | 0.00 | 75 | 1019.1 |
| 20260504230047 | 61 | 321 | 0.0 | 0.0 | 0.00 | 0.00 | 0.00 | 73 | 1019.2 |
| 20260504225543 | 61 | 316 | 0.0 | 0.0 | 0.00 | 0.00 | 0.00 | 74 | 1019.1 |
| 20260504225041 | 61 | 322 | 0.0 | 0.0 | 0.00 | 0.00 | 0.00 | 74 | 1019.3 |
| 20260504224537 | 61 | 308 | 0.0 | 0.0 | 0.00 | 0.00 | 0.00 | 74 | 1019.3 |
| 20260504224034 | 61 | 322 | 0.0 | 0.0 | 0.00 | 0.00 | 0.00 | 72 | 1019.2 |
| 20260504223531 | 62 | 299 | 0.0 | 0.0 | 0.00 | 0.00 | 0.00 | 70 | 1019.3 |
| 20260504223027 | 62 | 289 | 0.0 | 0.0 | 0.00 | 0.00 | 0.00 | 69 | 1019.2 |
| 20260504222524 | 62 | 323 | 0.0 | 0.0 | 0.00 | 0.00 | 0.00 | 70 | 1019.4 |
| 20260504222021 | 62 | 320 | 0.0 | 0.0 | 0.00 | 0.00 | 0.00 | 69 | 1019.4 |
| 20260504221518 | 62 | 306 | 0.0 | 0.0 | 0.00 | 0.00 | 0.00 | 68 | 1019.4 |
| 20260504221015 | 62 | 329 | 0.0 | 0.0 | 0.00 | 0.00 | 0.00 | 66 | 1019.4 |
| 20260504220512 | 62 | 336 | 0.0 | 0.0 | 0.00 | 0.00 | 0.00 | 66 | 1019.5 |
| 20260504220009 | 62 | 307 | 0.0 | 0.0 | 0.00 | 0.00 | 0.00 | 66 | 1019.4 |
| 20260504215505 | 63 | 321 | 0.0 | 0.0 | 0.00 | 0.00 | 0.00 | 66 | 1019.4 |
| 20260504215003 | 63 | 320 | 0.0 | 0.0 | 0.00 | 0.00 | 0.00 | 66 | 1019.3 |
| 20260504214458 | 63 | 305 | 0.0 | 0.0 | 0.00 | 0.00 | 0.00 | 67 | 1019.4 |
| 20260504213955 | 63 | 323 | 0.0 | 0.0 | 0.00 | 0.00 | 0.00 | 67 | 1019.3 |
| 20260504213451 | 63 | 324 | 0.0 | 0.0 | 0.00 | 0.00 | 0.00 | 70 | 1019.2 |
| 20260504212949 | 63 | 321 | 0.0 | 0.0 | 0.00 | 0.00 | 0.00 | 69 | 1019.3 |
| 20260504212444 | 63 | 317 | 0.0 | 0.0 | 0.00 | 0.00 | 0.00 | 70 | 1019.4 |
| 20260504211942 | 63 | 285 | 0.0 | 0.0 | 0.00 | 0.00 | 0.00 | 70 | 1019.2 |
| 20260504211438 | 63 | 329 | 0.0 | 0.0 | 0.00 | 0.00 | 0.00 | 70 | 1019.2 |
| 20260504210936 | 63 | 318 | 0.0 | 0.0 | 0.00 | 0.00 | 0.00 | 70 | 1019.5 |
| 20260504210433 | 63 | 320 | 0.0 | 0.0 | 0.00 | 0.00 | 0.00 | 69 | 1019.5 |
| 20260504205930 | 63 | 327 | 0.0 | 0.0 | 0.00 | 0.00 | 0.00 | 68 | 1019.5 |
| 20260504205427 | 63 | 324 | 0.0 | 0.0 | 0.00 | 0.00 | 0.00 | 67 | 1019.3 |
| 20260504204925 | 63 | 329 | 0.0 | 0.0 | 0.00 | 0.00 | 0.00 | 68 | 1019.6 |
| 20260504204423 | 63 | 335 | 0.0 | 0.0 | 0.00 | 0.00 | 0.00 | 68 | 1019.5 |
| 20260504203922 | 64 | 333 | 0.0 | 0.0 | 0.00 | 0.00 | 0.00 | 68 | 1019.5 |
| 20260504203420 | 64 | 323 | 0.0 | 0.0 | 0.00 | 0.00 | 0.00 | 67 | 1019.3 |
| 20260504202915 | 63 | 298 | 0.0 | 0.0 | 0.00 | 0.00 | 0.00 | 68 | 1019.4 |
| 20260504202412 | 63 | 319 | 0.0 | 0.0 | 0.00 | 0.00 | 0.00 | 67 | 1019.3 |
| 20260504201909 | 63 | 324 | 0.0 | 0.0 | 0.00 | 0.00 | 0.00 | 63 | 1019.3 |
| 20260504201406 | 62 | 319 | 0.0 | 0.0 | 0.00 | 0.00 | 0.00 | 62 | 1019.2 |
| 20260504200904 | 62 | 323 | 0.0 | 0.0 | 0.00 | 0.00 | 0.00 | 61 | 1019.4 |
| 20260504200400 | 62 | 290 | 0.0 | 0.0 | 0.00 | 0.00 | 0.00 | 62 | 1019.6 |
| 20260504195857 | 62 | 318 | 0.0 | 0.0 | 0.00 | 0.00 | 0.00 | 63 | 1019.5 |
| 20260504195352 | 61 | 319 | 0.0 | 0.0 | 0.00 | 0.00 | 0.00 | 65 | 1019.6 |
| 20260504194849 | 61 | 338 | 0.0 | 0.0 | 0.00 | 0.00 | 0.00 | 64 | 1019.8 |
| 20260504194345 | 62 | 321 | 0.0 | 0.0 | 0.00 | 0.00 | 0.00 | 65 | 1019.4 |
| 20260504193841 | 62 | 326 | 0.0 | 0.0 | 0.00 | 0.00 | 0.00 | 67 | 1019.4 |
| 20260504193339 | 62 | 318 | 0.0 | 0.0 | 0.00 | 0.00 | 0.00 | 67 | 1019.4 |
| 20260504192838 | 62 | 321 | 0.0 | 0.0 | 0.00 | 0.00 | 0.00 | 66 | 1019.3 |
| 20260504192335 | 62 | 313 | 0.0 | 0.0 | 0.00 | 0.00 | 0.00 | 65 | 1019.4 |
| 20260504191833 | 62 | 325 | 0.0 | 0.0 | 0.00 | 0.00 | 0.00 | 66 | 1019.5 |
| 20260504191330 | 62 | 323 | 0.0 | 0.0 | 0.00 | 0.00 | 0.00 | 65 | 1019.6 |
| 20260504190826 | 63 | 326 | 0.0 | 0.0 | 0.00 | 0.00 | 0.00 | 63 | 1019.3 |
| 20260504190322 | 63 | 325 | 0.0 | 0.0 | 0.00 | 0.00 | 0.00 | 63 | 1019.5 |
| 20260504185819 | 63 | 265 | 0.0 | 0.0 | 0.00 | 0.00 | 0.00 | 61 | 1019.5 |
| 20260504185316 | 63 | 325 | 0.0 | 0.0 | 0.00 | 0.00 | 0.00 | 62 | 1019.6 |
| 20260504184812 | 64 | 318 | 0.0 | 0.0 | 0.00 | 0.00 | 0.00 | 63 | 1019.5 |
| 20260504184308 | 64 | 314 | 0.0 | 0.0 | 0.00 | 0.00 | 0.00 | 63 | 1019.5 |
| 20260504183803 | 64 | 325 | 0.0 | 0.0 | 0.00 | 0.00 | 0.00 | 64 | 1019.4 |
| 20260504183301 | 64 | 327 | 0.0 | 0.0 | 0.00 | 0.00 | 0.00 | 64 | 1019.5 |
| 20260504182759 | 64 | 317 | 0.0 | 0.0 | 0.00 | 0.00 | 0.00 | 63 | 1019.3 |
| 20260504182256 | 63 | 316 | 0.0 | 0.0 | 0.00 | 0.00 | 0.00 | 61 | 1019.5 |
| 20260504181753 | 63 | 311 | 0.0 | 0.0 | 0.00 | 0.00 | 0.00 | 63 | 1019.5 |
| 20260504181250 | 63 | 322 | 0.0 | 0.0 | 0.00 | 0.00 | 0.00 | 65 | 1019.3 |
| 20260504180750 | 62 | 325 | 0.0 | 0.0 | 0.00 | 0.00 | 0.00 | 63 | 1019.7 |
| 20260504180248 | 62 | 306 | 0.0 | 0.0 | 0.00 | 0.00 | 0.00 | 64 | 1019.5 |
| 20260504175745 | 63 | 317 | 0.0 | 0.0 | 0.00 | 0.00 | 0.00 | 64 | 1019.6 |
| 20260504175242 | 62 | 331 | 0.0 | 0.0 | 0.00 | 0.00 | 0.00 | 65 | 1019.3 |
| 20260504174739 | 63 | 346 | 0.0 | 0.0 | 0.00 | 0.00 | 0.00 | 64 | 1019.2 |
| 20260504174237 | 63 | 322 | 0.0 | 0.0 | 0.00 | 0.00 | 0.00 | 65 | 1019.1 |
| 20260504173733 | 63 | 318 | 0.0 | 0.0 | 0.00 | 0.00 | 0.00 | 68 | 1019.3 |
| 20260504173231 | 62 | 322 | 0.0 | 0.0 | 0.00 | 0.00 | 0.00 | 69 | 1019.3 |
| 20260504172727 | 63 | 320 | 0.0 | 0.0 | 0.00 | 0.00 | 0.00 | 66 | 1019.1 |
| 20260504172224 | 64 | 316 | 0.0 | 0.0 | 0.00 | 0.00 | 0.00 | 67 | 1019.3 |
| 20260504171720 | 64 | 333 | 0.0 | 0.0 | 0.00 | 0.00 | 0.00 | 67 | 1019.2 |
| 20260504171217 | 63 | 314 | 0.0 | 0.0 | 0.00 | 0.00 | 0.00 | 69 | 1019.2 |
| 20260504170714 | 61 | 294 | 0.0 | 0.0 | 0.00 | 0.00 | 0.00 | 71 | 1019.1 |
| 20260504170212 | 61 | 324 | 0.0 | 0.0 | 0.00 | 0.00 | 0.00 | 73 | 1019.1 |
| 20260504160130 | 60 | 319 | 0.0 | 0.0 | 0.00 | 0.00 | 0.00 | 78 | 1019.4 |
| 20260504151057 | 51 | 325 | 0.0 | 0.0 | 0.00 | 0.00 | 0.00 | 96 | 1019.2 |
| 20260504150555 | 50 | 322 | 0.0 | 0.0 | 0.00 | 0.00 | 0.00 | 97 | 1019.2 |
| 20260504141020 | 46 | 325 | 0.0 | 0.0 | 0.00 | 0.00 | 0.00 | 97 | 1019.2 |
| 20260504140517 | 46 | 323 | 0.0 | 0.0 | 0.00 | 0.00 | 0.00 | 97 | 1019.3 |
| 20260504130441 | 46 | 325 | 0.0 | 0.0 | 0.00 | 0.00 | 0.00 | 96 | 1018.8 |
| 20260504110328 | 47 | 325 | 0.0 | 0.0 | 0.00 | 0.00 | 0.00 | 95 | 1018.6 |